Time;durP1;ratioP1;P1;durP2;ratioP2;P2;SDS_P1;SDS_P2;PMS_P1;PMS_P2;Temp;Humidity;BMP_temperature;BMP_pressure;BME280_temperature;BME280_humidity;BME280_pressure;Samples;Min_cycle;Max_cycle;Signal;HPM_P1;HPM_P2
2024/02/19 00:01:40;;;;;;;3.10;1.97;;;22.30;79.70;;;;;;4838911;28;21040;-68
2024/02/19 00:04:20;;;;;;;4.00;1.60;;;22.40;79.70;;;;;;4840805;28;21389;-67
2024/02/19 00:06:55;;;;;;;2.97;2.20;;;22.40;79.50;;;;;;4844147;28;20458;-68
2024/02/19 00:09:27;;;;;;;3.60;1.90;;;22.30;79.30;;;;;;4844253;28;20469;-67
2024/02/19 00:12:01;;;;;;;2.03;1.80;;;22.30;79.30;;;;;;4848976;28;20842;-67
2024/02/19 00:14:30;;;;;;;2.73;2.10;;;22.30;79.30;;;;;;4838660;28;20547;-67
2024/02/19 00:16:58;;;;;;;2.00;1.80;;;22.30;79.20;;;;;;4844418;28;21204;-68
2024/02/19 00:19:33;;;;;;;3.10;1.77;;;22.30;79.30;;;;;;4839511;28;22499;-68
2024/02/19 00:22:00;;;;;;;3.17;1.33;;;22.30;79.40;;;;;;4845216;28;21018;-67
2024/02/19 00:24:39;;;;;;;3.73;1.63;;;22.20;79.10;;;;;;4842643;28;20463;-65
2024/02/19 00:27:10;;;;;;;3.53;1.40;;;22.20;79.20;;;;;;4849005;28;20552;-64
2024/02/19 00:29:40;;;;;;;6.67;2.20;;;22.20;79.10;;;;;;4840404;28;26251;-65
2024/02/19 00:32:07;;;;;;;2.77;1.60;;;22.20;79.20;;;;;;4835794;28;21103;-64
2024/02/19 00:37:26;;;;;;;1.97;1.50;;;22.10;79.10;;;;;;4846657;28;26633;-66
2024/02/19 00:39:58;;;;;;;2.27;1.60;;;22.10;79.10;;;;;;4845809;28;20589;-65
2024/02/19 00:42:29;;;;;;;2.20;1.63;;;22.10;79.10;;;;;;4834191;28;20475;-64
2024/02/19 00:45:02;;;;;;;4.10;1.60;;;22.10;79.10;;;;;;4842807;28;20930;-65
2024/02/19 00:47:32;;;;;;;3.43;2.50;;;22.00;79.70;;;;;;4842102;28;22363;-65
2024/02/19 00:50:03;;;;;;;2.37;1.53;;;22.00;79.00;;;;;;4834711;28;20473;-66
2024/02/19 00:52:32;;;;;;;2.13;1.60;;;22.00;79.10;;;;;;4829805;28;20539;-65
2024/02/19 00:55:05;;;;;;;3.13;1.50;;;22.00;79.10;;;;;;4844137;28;21821;-64
2024/02/19 00:57:36;;;;;;;5.30;1.47;;;21.90;79.00;;;;;;4835824;28;20635;-65
2024/02/19 01:00:22;;;;;;;2.97;1.70;;;21.90;79.50;;;;;;4842372;28;26602;-65
2024/02/19 01:02:54;;;;;;;3.90;1.63;;;21.90;79.20;;;;;;4841619;28;20481;-66
2024/02/19 01:05:24;;;;;;;2.20;1.50;;;21.90;79.30;;;;;;4834616;28;20563;-65
2024/02/19 01:08:01;;;;;;;2.00;1.70;;;21.80;79.20;;;;;;4836816;28;20455;-65
2024/02/19 01:10:33;;;;;;;2.37;1.50;;;21.80;79.40;;;;;;4841764;28;20668;-66
2024/02/19 01:13:02;;;;;;;2.27;2.03;;;21.80;79.30;;;;;;4841875;28;21293;-66
2024/02/19 01:15:35;;;;;;;2.47;2.00;;;21.80;79.40;;;;;;4840010;28;20466;-65
2024/02/19 01:18:02;;;;;;;2.53;1.60;;;21.80;79.30;;;;;;4841352;28;26259;-65
2024/02/19 01:20:50;;;;;;;2.27;1.43;;;21.80;79.30;;;;;;4836031;28;20473;-65
2024/02/19 01:23:18;;;;;;;2.60;1.40;;;21.80;79.30;;;;;;4833871;28;20558;-65
2024/02/19 01:25:53;;;;;;;3.50;2.20;;;21.80;79.30;;;;;;4840905;28;20760;-66
2024/02/19 01:28:24;;;;;;;3.20;2.30;;;21.70;79.20;;;;;;4843016;28;27221;-65
2024/02/19 01:30:59;;;;;;;3.50;1.57;;;21.70;79.20;;;;;;4838370;28;20570;-64
2024/02/19 01:33:27;;;;;;;2.90;1.53;;;21.70;79.20;;;;;;4838478;28;20461;-64
2024/02/19 01:35:58;;;;;;;2.17;1.60;;;21.70;79.20;;;;;;4838789;28;20462;-66
2024/02/19 01:38:33;;;;;;;2.00;1.60;;;21.70;79.30;;;;;;4839161;28;20469;-66
2024/02/19 01:41:00;;;;;;;1.77;1.40;;;21.70;79.30;;;;;;4849931;28;20935;-61
2024/02/19 01:43:27;;;;;;;3.40;1.77;;;21.60;79.20;;;;;;4838108;28;20567;-65
2024/02/19 01:45:58;;;;;;;2.97;2.00;;;21.60;79.30;;;;;;4844710;28;20470;-64
2024/02/19 01:48:29;;;;;;;2.83;1.47;;;21.60;79.40;;;;;;4848703;28;20584;-65
2024/02/19 01:51:13;;;;;;;2.27;1.60;;;21.60;79.50;;;;;;4836809;28;21928;-64
2024/02/19 01:53:54;;;;;;;1.90;1.70;;;21.50;79.50;;;;;;4839548;28;21332;-65
2024/02/19 01:56:23;;;;;;;2.27;1.60;;;21.50;79.60;;;;;;4841586;28;20737;-64
2024/02/19 01:58:58;;;;;;;1.53;1.30;;;21.50;79.60;;;;;;4836509;28;21157;-65
2024/02/19 02:01:29;;;;;;;1.90;1.50;;;21.50;79.60;;;;;;4843313;28;20477;-66
2024/02/19 02:04:00;;;;;;;2.60;1.70;;;21.50;79.60;;;;;;4835441;28;26434;-65
2024/02/19 02:06:31;;;;;;;1.63;1.20;;;21.50;79.60;;;;;;4838090;28;20561;-65
2024/02/19 02:08:58;;;;;;;1.90;1.40;;;21.50;79.80;;;;;;4833422;28;20459;-64
2024/02/19 02:11:35;;;;;;;2.13;1.60;;;21.50;79.50;;;;;;4839275;28;20485;-64
2024/02/19 02:14:09;;;;;;;2.20;1.30;;;21.40;80.30;;;;;;4839372;28;21026;-64
2024/02/19 02:16:37;;;;;;;1.43;1.13;;;21.40;79.40;;;;;;4825225;28;20634;-65
2024/02/19 02:19:07;;;;;;;1.67;1.33;;;21.40;79.50;;;;;;4836786;28;21501;-66
2024/02/19 02:21:40;;;;;;;2.23;1.33;;;21.40;79.50;;;;;;4841004;28;21350;-64
2024/02/19 02:24:10;;;;;;;1.70;1.20;;;21.40;79.50;;;;;;4835082;28;20469;-65
2024/02/19 02:26:44;;;;;;;2.17;1.70;;;21.40;79.60;;;;;;4839616;28;20453;-65
2024/02/19 02:29:18;;;;;;;1.90;1.50;;;21.40;79.50;;;;;;4844729;28;20472;-66
2024/02/19 02:31:50;;;;;;;3.03;1.57;;;21.30;80.10;;;;;;4842191;28;26212;-66
2024/02/19 02:34:22;;;;;;;2.40;1.37;;;21.30;79.40;;;;;;4838398;28;20479;-65
2024/02/19 02:36:58;;;;;;;1.63;1.37;;;21.30;79.50;;;;;;4834344;28;20800;-65
2024/02/19 02:39:30;;;;;;;1.73;1.35;;;21.30;79.50;;;;;;4838667;28;20986;-65
2024/02/19 02:42:05;;;;;;;3.53;1.70;;;21.30;79.50;;;;;;4836411;28;20200;-64
2024/02/19 02:44:33;;;;;;;1.73;1.30;;;21.30;79.70;;;;;;4842577;28;20470;-63
2024/02/19 02:47:03;;;;;;;1.55;1.33;;;21.30;79.70;;;;;;4845826;28;26429;-65
2024/02/19 02:49:36;;;;;;;1.65;1.20;;;21.30;79.90;;;;;;4832837;28;20842;-65
2024/02/19 02:52:13;;;;;;;2.50;1.20;;;21.30;79.80;;;;;;4841584;28;20771;-64
2024/02/19 02:55:06;;;;;;;3.80;1.87;;;21.20;79.80;;;;;;4838775;28;20794;-64
2024/02/19 02:57:45;;;;;;;1.70;1.07;;;21.20;79.80;;;;;;4838790;28;20463;-66
2024/02/19 03:00:29;;;;;;;1.67;1.20;;;21.20;79.80;;;;;;4838251;28;21116;-65
2024/02/19 03:02:59;;;;;;;2.10;1.43;;;21.20;79.80;;;;;;4842547;28;20465;-63
2024/02/19 03:05:30;;;;;;;2.30;1.40;;;21.30;79.80;;;;;;4838140;28;20470;-66
2024/02/19 03:07:58;;;;;;;2.03;1.27;;;21.20;79.70;;;;;;4837677;28;20223;-66
2024/02/19 03:10:32;;;;;;;1.90;1.40;;;21.20;79.60;;;;;;4836707;28;20469;-65
2024/02/19 03:13:05;;;;;;;3.43;1.40;;;21.20;79.70;;;;;;4838956;28;20258;-65
2024/02/19 03:15:37;;;;;;;2.30;1.30;;;21.20;79.80;;;;;;4845429;28;20501;-65
2024/02/19 03:18:26;;;;;;;2.60;1.73;;;21.10;79.70;;;;;;4833338;28;20458;-66
2024/02/19 03:21:07;;;;;;;3.23;1.37;;;21.10;79.70;;;;;;4833465;28;20463;-62
2024/02/19 03:23:39;;;;;;;1.83;1.30;;;21.10;79.60;;;;;;4841392;28;20494;-65
2024/02/19 03:26:07;;;;;;;3.45;1.30;;;21.10;79.70;;;;;;4840383;28;20463;-66
2024/02/19 03:28:41;;;;;;;1.70;1.20;;;21.10;79.80;;;;;;4835858;28;26258;-66
2024/02/19 03:31:07;;;;;;;1.70;1.50;;;21.10;79.80;;;;;;4838427;28;20217;-65
2024/02/19 03:33:39;;;;;;;1.80;1.10;;;21.00;79.70;;;;;;4836625;28;20479;-65
2024/02/19 03:36:12;;;;;;;1.90;1.33;;;21.00;79.70;;;;;;4839827;28;20466;-65
2024/02/19 03:38:43;;;;;;;1.67;1.23;;;21.00;79.80;;;;;;4839803;28;20470;-62
2024/02/19 03:41:14;;;;;;;2.40;1.60;;;21.00;80.20;;;;;;4843930;28;20442;-65
2024/02/19 03:43:44;;;;;;;1.63;1.47;;;21.00;80.00;;;;;;4846256;28;20454;-66
2024/02/19 03:46:20;;;;;;;2.00;1.20;;;21.00;79.90;;;;;;4843155;28;20459;-66
2024/02/19 03:48:57;;;;;;;1.93;0.93;;;21.00;80.00;;;;;;4842785;28;20523;-66
2024/02/19 03:51:36;;;;;;;1.83;1.20;;;21.00;80.00;;;;;;4846935;28;21168;-62
2024/02/19 03:54:10;;;;;;;1.83;1.47;;;21.00;80.10;;;;;;4844423;28;20493;-65
2024/02/19 03:56:41;;;;;;;1.80;1.27;;;21.00;80.10;;;;;;4848621;28;20468;-64
2024/02/19 03:59:09;;;;;;;1.77;1.00;;;21.00;80.00;;;;;;4849339;28;20470;-64
2024/02/19 04:01:45;;;;;;;1.70;1.10;;;20.90;79.90;;;;;;4850319;28;20463;-67
2024/02/19 04:04:28;;;;;;;2.37;1.33;;;21.00;79.90;;;;;;4843527;28;26708;-65
2024/02/19 04:07:01;;;;;;;2.22;1.30;;;21.00;80.00;;;;;;4843320;28;20457;-65
2024/02/19 04:09:38;;;;;;;1.20;0.90;;;20.90;79.80;;;;;;4842812;28;20905;-65
2024/02/19 04:12:09;;;;;;;1.67;1.37;;;20.90;79.90;;;;;;4830101;28;20639;-65
2024/02/19 04:14:46;;;;;;;2.77;1.07;;;20.90;80.00;;;;;;4833686;28;20658;-66
2024/02/19 04:17:17;;;;;;;1.23;1.07;;;20.90;79.90;;;;;;4837741;28;27063;-65
2024/02/19 04:19:54;;;;;;;1.50;1.10;;;20.90;80.00;;;;;;4842918;28;20466;-64
2024/02/19 04:22:23;;;;;;;1.40;1.27;;;20.90;79.90;;;;;;4845138;28;20565;-66
2024/02/19 04:24:57;;;;;;;2.17;1.67;;;20.90;80.00;;;;;;4844834;28;20698;-64
2024/02/19 04:27:24;;;;;;;1.42;1.08;;;20.90;80.00;;;;;;4850106;28;21037;-65
2024/02/19 04:29:56;;;;;;;2.13;1.20;;;20.90;80.40;;;;;;4835577;28;20200;-65
2024/02/19 04:32:30;;;;;;;1.20;1.10;;;20.80;79.90;;;;;;4835774;28;20479;-65
2024/02/19 04:34:58;;;;;;;1.53;1.10;;;20.80;80.00;;;;;;4845420;28;21432;-63
2024/02/19 04:37:30;;;;;;;2.80;1.40;;;20.90;80.30;;;;;;4843646;28;20741;-66
2024/02/19 04:40:12;;;;;;;2.83;2.03;;;20.80;80.30;;;;;;4846534;28;20825;-65
2024/02/19 04:42:49;;;;;;;1.80;1.40;;;20.80;80.30;;;;;;4848019;28;20602;-65
2024/02/19 04:45:18;;;;;;;1.57;1.30;;;20.80;80.30;;;;;;4838973;28;20306;-65
2024/02/19 04:47:56;;;;;;;1.73;1.20;;;20.80;80.30;;;;;;4844460;28;20471;-65
2024/02/19 04:50:44;;;;;;;1.85;1.23;;;20.80;80.20;;;;;;4843742;28;21764;-65
2024/02/19 04:53:17;;;;;;;1.90;1.33;;;20.80;80.20;;;;;;4830962;28;20800;-66
2024/02/19 04:55:47;;;;;;;2.20;0.90;;;20.80;80.30;;;;;;4840396;28;21263;-64
2024/02/19 04:58:18;;;;;;;1.30;1.10;;;20.80;80.10;;;;;;4837316;28;21044;-65
2024/02/19 05:00:52;;;;;;;2.47;1.30;;;20.80;80.70;;;;;;4831842;28;20215;-65
2024/02/19 05:03:19;;;;;;;1.98;1.30;;;20.80;80.20;;;;;;4846444;28;20459;-65
2024/02/19 05:05:48;;;;;;;1.70;1.10;;;20.80;80.20;;;;;;4837364;28;20836;-65
2024/02/19 05:08:33;;;;;;;1.83;1.13;;;20.80;80.20;;;;;;4840794;28;21009;-66
2024/02/19 05:11:04;;;;;;;2.07;1.20;;;20.70;80.00;;;;;;4845781;28;20455;-65
2024/02/19 05:13:37;;;;;;;1.73;1.10;;;20.70;80.10;;;;;;4844452;28;20483;-62
2024/02/19 05:16:14;;;;;;;2.23;1.20;;;20.70;80.10;;;;;;4843668;28;20472;-65
2024/02/19 05:18:43;;;;;;;1.60;1.10;;;20.70;80.30;;;;;;4845573;28;20562;-64
2024/02/19 05:21:10;;;;;;;1.63;1.10;;;20.70;80.20;;;;;;4844496;28;20466;-65
2024/02/19 05:23:44;;;;;;;1.23;0.90;;;20.70;80.30;;;;;;4834828;28;20466;-65
2024/02/19 05:26:12;;;;;;;1.77;1.00;;;20.60;80.20;;;;;;4842842;28;20220;-66
2024/02/19 05:28:43;;;;;;;1.73;1.20;;;20.70;80.20;;;;;;4843123;28;26481;-65
2024/02/19 05:31:31;;;;;;;1.20;0.90;;;20.60;80.20;;;;;;4847345;28;20628;-64
2024/02/19 05:33:58;;;;;;;2.60;1.30;;;20.70;80.50;;;;;;4845572;28;20326;-63
2024/02/19 05:36:25;;;;;;;1.60;1.10;;;20.70;80.30;;;;;;4842790;28;20873;-65
2024/02/19 05:38:55;;;;;;;1.70;1.15;;;20.60;80.30;;;;;;4843002;28;20686;-66
2024/02/19 05:41:31;;;;;;;2.93;1.20;;;20.60;80.20;;;;;;4849030;28;20215;-65
2024/02/19 05:44:06;;;;;;;1.63;1.10;;;20.70;80.40;;;;;;4843905;28;27405;-64
2024/02/19 05:46:52;;;;;;;1.50;1.15;;;20.60;80.20;;;;;;4840695;28;20208;-65
2024/02/19 05:49:19;;;;;;;1.60;1.00;;;20.70;80.30;;;;;;4844266;28;20212;-66
2024/02/19 05:51:48;;;;;;;1.75;1.55;;;20.60;80.10;;;;;;4844385;28;20477;-65
2024/02/19 05:54:18;;;;;;;1.97;1.37;;;20.60;80.20;;;;;;4843556;28;20778;-64
2024/02/19 05:56:52;;;;;;;1.53;1.10;;;20.60;80.00;;;;;;4839631;28;20462;-62
2024/02/19 05:59:19;;;;;;;1.23;0.90;;;20.60;80.20;;;;;;4836620;28;20465;-62
2024/02/19 06:01:50;;;;;;;1.50;1.10;;;20.60;80.10;;;;;;4841897;28;21102;-65
2024/02/19 06:04:18;;;;;;;1.40;0.90;;;20.60;80.20;;;;;;4843783;28;20683;-66
2024/02/19 06:06:48;;;;;;;3.07;1.10;;;20.60;80.30;;;;;;4846276;28;26990;-63
2024/02/19 06:09:19;;;;;;;1.57;1.10;;;20.60;80.20;;;;;;4840005;28;20997;-63
2024/02/19 06:11:51;;;;;;;2.20;1.10;;;20.60;80.40;;;;;;4842864;28;21104;-65
2024/02/19 06:14:23;;;;;;;1.40;1.20;;;20.60;80.30;;;;;;4840047;28;20342;-64
2024/02/19 06:16:52;;;;;;;1.47;1.00;;;20.60;80.40;;;;;;4841699;28;20724;-65
2024/02/19 06:19:20;;;;;;;2.40;1.50;;;20.50;80.40;;;;;;4847018;28;21323;-66
2024/02/19 06:21:50;;;;;;;1.73;1.05;;;20.50;80.40;;;;;;4837336;28;20202;-64
2024/02/19 06:24:18;;;;;;;1.50;1.07;;;20.60;80.60;;;;;;4843947;28;20210;-64
2024/02/19 06:26:45;;;;;;;1.35;1.00;;;20.50;80.30;;;;;;4847737;28;26079;-65
2024/02/19 06:29:15;;;;;;;1.57;0.93;;;20.60;80.50;;;;;;4849589;28;20299;-66
2024/02/19 06:31:44;;;;;;;2.25;1.30;;;20.60;80.40;;;;;;4843561;28;21181;-65
2024/02/19 06:34:13;;;;;;;4.82;0.90;;;20.50;80.30;;;;;;4847905;28;20235;-65
2024/02/19 06:36:40;;;;;;;2.42;1.80;;;20.50;80.30;;;;;;4845287;28;20689;-65
2024/02/19 06:39:10;;;;;;;1.30;1.10;;;20.50;80.30;;;;;;4845445;28;20204;-64
2024/02/19 06:41:39;;;;;;;1.97;1.00;;;20.50;80.30;;;;;;4832990;28;20210;-65
2024/02/19 06:44:10;;;;;;;1.77;1.20;;;20.50;80.20;;;;;;4845469;28;26522;-65
2024/02/19 06:46:48;;;;;;;;;;;;;;;;;;;;;
2024/02/19 06:49:22;;;;;;;1.60;0.90;;;20.60;80.30;;;;;;4833961;28;20195;-65
2024/02/19 06:51:51;;;;;;;1.70;1.40;;;20.50;80.30;;;;;;4835153;28;20466;-65
2024/02/19 06:54:25;;;;;;;1.67;1.25;;;20.50;80.20;;;;;;4840813;28;20471;-63
2024/02/19 06:56:54;;;;;;;1.33;0.82;;;20.50;80.30;;;;;;4838484;28;20222;-66
2024/02/19 06:59:26;;;;;;;1.50;0.87;;;20.40;80.30;;;;;;4841656;28;20204;-66
2024/02/19 07:01:55;;;;;;;1.50;0.85;;;20.50;80.30;;;;;;4844667;28;26663;-65
2024/02/19 07:04:29;;;;;;;1.97;1.27;;;20.40;80.20;;;;;;4836101;28;27206;-64
2024/02/19 07:07:03;;;;;;;2.33;1.10;;;20.40;80.30;;;;;;4840679;28;20461;-66
2024/02/19 07:09:46;;;;;;;1.97;1.17;;;20.40;80.30;;;;;;4840330;28;21065;-64
2024/02/19 07:12:22;;;;;;;2.70;1.20;;;20.50;80.30;;;;;;4842714;28;21176;-65
2024/02/19 07:14:53;;;;;;;1.55;0.90;;;20.40;80.30;;;;;;4839236;28;20584;-61
2024/02/19 07:17:19;;;;;;;1.40;1.10;;;20.40;80.40;;;;;;4840612;28;20206;-65
2024/02/19 07:19:53;;;;;;;2.03;1.33;;;20.40;80.30;;;;;;4836053;28;20609;-66
2024/02/19 07:22:33;;;;;;;1.50;1.08;;;20.40;80.40;;;;;;4842677;28;20199;-64
2024/02/19 07:25:00;;;;;;;1.30;1.00;;;20.40;80.30;;;;;;4839987;28;20215;-66
2024/02/19 07:27:42;;;;;;;1.93;1.23;;;20.40;80.30;;;;;;4840873;28;20602;-66
2024/02/19 07:30:12;;;;;;;1.30;1.00;;;20.40;80.20;;;;;;4847994;28;20474;-67
2024/02/19 07:32:49;;;;;;;1.20;0.85;;;20.40;80.70;;;;;;4841368;28;20924;-66
2024/02/19 07:35:25;;;;;;;1.80;1.17;;;20.40;80.70;;;;;;4845211;28;20227;-64
2024/02/19 07:37:52;;;;;;;2.73;1.30;;;20.40;80.60;;;;;;4839280;28;20621;-66
2024/02/19 07:40:22;;;;;;;1.20;1.00;;;20.40;80.90;;;;;;4837361;28;21161;-67
2024/02/19 07:42:57;;;;;;;1.40;1.30;;;20.40;81.30;;;;;;4829390;28;20212;-66
2024/02/19 07:45:31;;;;;;;1.30;0.90;;;20.50;81.40;;;;;;4828536;28;21332;-67
2024/02/19 07:48:00;;;;;;;1.30;1.00;;;20.40;81.30;;;;;;4833841;28;20464;-67
2024/02/19 07:50:31;;;;;;;1.90;1.00;;;20.40;82.00;;;;;;4831207;28;20204;-67
2024/02/19 07:53:01;;;;;;;1.50;1.10;;;20.50;81.20;;;;;;4823032;28;20848;-66
2024/02/19 07:55:31;;;;;;;1.52;1.00;;;20.40;81.20;;;;;;4833092;28;20926;-67
2024/02/19 07:57:58;;;;;;;1.57;1.20;;;20.50;80.90;;;;;;4839818;28;26583;-67
2024/02/19 08:00:29;;;;;;;1.37;1.00;;;20.50;80.90;;;;;;4832600;28;21639;-66
2024/02/19 08:02:56;;;;;;;2.20;1.20;;;20.50;80.80;;;;;;4840898;28;20454;-66
2024/02/19 08:05:30;;;;;;;2.10;1.23;;;20.50;80.90;;;;;;4831839;28;20602;-66
2024/02/19 08:08:01;;;;;;;1.25;0.95;;;20.50;80.90;;;;;;4844537;28;20559;-65
2024/02/19 08:10:32;;;;;;;2.40;1.70;;;20.60;80.80;;;;;;4840431;28;21156;-67
2024/02/19 08:13:15;;;;;;;4.57;1.10;;;20.60;80.60;;;;;;4844720;28;26407;-66
2024/02/19 08:15:49;;;;;;;2.17;1.13;;;20.60;80.70;;;;;;4833348;28;20467;-66
2024/02/19 08:18:25;;;;;;;1.55;1.00;;;20.60;80.80;;;;;;4894147;28;20203;-66
2024/02/19 08:20:53;;;;;;;1.20;0.90;;;20.50;80.80;;;;;;4776651;28;22970;-66
2024/02/19 08:23:33;;;;;;;1.50;0.93;;;20.60;81.00;;;;;;4797193;28;20462;-66
2024/02/19 08:26:06;;;;;;;2.80;1.10;;;20.60;81.40;;;;;;4799948;28;20493;-65
2024/02/19 08:28:43;;;;;;;1.57;0.90;;;20.60;81.40;;;;;;4798666;28;20569;-66
2024/02/19 08:31:14;;;;;;;2.73;1.43;;;20.60;80.80;;;;;;4796690;28;20585;-66
2024/02/19 08:33:55;;;;;;;1.93;1.27;;;20.60;80.60;;;;;;4785292;28;26892;-66
2024/02/19 08:36:32;;;;;;;1.20;1.00;;;20.60;80.30;;;;;;4786506;28;20465;-66
2024/02/19 08:39:09;;;;;;;1.83;0.90;;;20.70;80.40;;;;;;4769987;28;20462;-66
2024/02/19 08:41:53;;;;;;;;;;;;;;;;;;;;;
2024/02/19 08:44:33;;;;;;;1.10;0.73;;;20.70;80.30;;;;;;4782661;28;21105;-66
2024/02/19 08:47:07;;;;;;;1.50;1.00;;;20.70;80.20;;;;;;4782545;28;20581;-66
2024/02/19 08:49:43;;;;;;;2.27;1.20;;;20.70;80.10;;;;;;4778507;28;20493;-67
2024/02/19 08:52:13;;;;;;;2.20;1.10;;;20.70;80.00;;;;;;4781501;28;21068;-66
2024/02/19 08:54:45;;;;;;;2.20;1.27;;;20.70;80.00;;;;;;4782078;28;20478;-66
2024/02/19 08:57:14;;;;;;;1.40;0.90;;;20.70;80.90;;;;;;4770528;28;20466;-66
2024/02/19 08:59:45;;;;;;;1.23;0.90;;;20.70;80.10;;;;;;4785366;28;21167;-65
2024/02/19 09:02:14;;;;;;;2.10;1.23;;;20.70;80.00;;;;;;4784388;28;20508;-66
2024/02/19 09:04:47;;;;;;;1.20;0.90;;;20.80;80.10;;;;;;4779781;28;23435;-66
2024/02/19 09:07:16;;;;;;;1.40;1.00;;;20.80;80.10;;;;;;4776765;28;20544;-65
2024/02/19 09:09:48;;;;;;;2.00;1.77;;;20.80;80.10;;;;;;4784074;28;20756;-66
2024/02/19 09:12:17;;;;;;;1.43;0.90;;;20.70;79.90;;;;;;4781601;28;20544;-66
2024/02/19 09:14:46;;;;;;;2.77;1.23;;;20.80;80.10;;;;;;4783244;28;27299;-66
2024/02/19 09:17:25;;;;;;;2.70;1.00;;;20.80;80.00;;;;;;4777058;28;26702;-66
2024/02/19 09:19:56;;;;;;;4.10;1.23;;;20.80;80.00;;;;;;4779477;28;20885;-66
2024/02/19 09:22:35;;;;;;;2.17;1.05;;;20.70;79.90;;;;;;4782498;28;20540;-66
2024/02/19 09:25:14;;;;;;;1.70;1.13;;;20.80;80.20;;;;;;4764354;28;20734;-66
2024/02/19 09:27:55;;;;;;;;;;;;;;;;;;;;;
2024/02/19 09:30:25;;;;;;;1.70;1.03;;;20.90;80.50;;;;;;4785231;28;23929;-66
2024/02/19 09:32:55;;;;;;;4.10;0.93;;;20.90;80.70;;;;;;4781530;28;20466;-66
2024/02/19 09:35:24;;;;;;;1.70;0.80;;;20.90;80.70;;;;;;4783822;28;21527;-66
2024/02/19 09:38:00;;;;;;;3.03;1.20;;;20.90;80.80;;;;;;4783028;28;21839;-67
2024/02/19 09:40:38;;;;;;;3.60;1.33;;;20.90;80.80;;;;;;4778214;28;21450;-66
2024/02/19 09:43:06;;;;;;;4.97;0.90;;;20.90;80.90;;;;;;4929403;28;20451;-63
2024/02/19 09:45:37;;;;;;;3.47;1.20;;;20.90;81.90;;;;;;4937639;28;20281;-70
2024/02/19 09:48:11;;;;;;;1.88;0.80;;;20.80;82.60;;;;;;4991173;28;20471;-71
2024/02/19 09:50:43;;;;;;;2.35;1.00;;;20.90;83.20;;;;;;4978391;28;20576;-69
2024/02/19 09:53:21;;;;;;;3.20;1.30;;;20.90;82.40;;;;;;4954713;28;20200;-71
2024/02/19 09:56:03;;;;;;;1.55;1.00;;;20.90;82.70;;;;;;4997600;28;20361;-67
2024/02/19 09:58:35;;;;;;;1.30;1.20;;;20.90;82.80;;;;;;4983472;28;20600;-72
2024/02/19 10:01:03;;;;;;;1.23;0.82;;;20.90;82.60;;;;;;4991244;28;20803;-66
2024/02/19 10:03:30;;;;;;;4.32;1.02;;;20.90;82.50;;;;;;4995841;28;20216;-68
2024/02/19 10:05:58;;;;;;;2.75;0.98;;;20.90;82.80;;;;;;4992864;28;20680;-71
2024/02/19 10:08:26;;;;;;;1.42;0.90;;;20.90;83.30;;;;;;4993145;28;20196;-70
2024/02/19 10:11:06;;;;;;;2.60;1.10;;;20.90;83.50;;;;;;4994262;28;20192;-69
2024/02/19 10:13:41;;;;;;;3.05;0.90;;;21.00;84.20;;;;;;4996546;28;20208;-65
2024/02/19 10:16:29;;;;;;;1.85;1.10;;;21.00;84.40;;;;;;4986999;28;20238;-67
2024/02/19 10:19:05;;;;;;;3.92;1.35;;;21.00;84.80;;;;;;4961517;28;20283;-68
2024/02/19 10:21:32;;;;;;;2.05;0.80;;;21.00;85.00;;;;;;4997750;28;20195;-67
2024/02/19 10:24:02;;;;;;;3.20;1.17;;;21.00;85.20;;;;;;4996121;28;20197;-66
2024/02/19 10:26:35;;;;;;;5.05;1.65;;;21.10;85.30;;;;;;4992103;28;20208;-67
2024/02/19 10:29:04;;;;;;;1.58;1.25;;;21.10;85.60;;;;;;4996000;28;20780;-69
2024/02/19 10:31:41;;;;;;;1.73;1.15;;;21.20;85.70;;;;;;4996136;28;20576;-69
2024/02/19 10:34:11;;;;;;;1.95;1.10;;;21.20;85.60;;;;;;4994425;28;20567;-71
2024/02/19 10:36:41;;;;;;;1.80;1.10;;;21.20;85.50;;;;;;4988311;28;20659;-70
2024/02/19 10:39:10;;;;;;;6.43;1.20;;;21.30;85.60;;;;;;4998413;28;20463;-73
2024/02/19 10:41:44;;;;;;;2.00;1.00;;;21.30;85.50;;;;;;4993285;28;20204;-70
2024/02/19 10:44:13;;;;;;;1.53;0.90;;;21.30;85.40;;;;;;4999113;28;20946;-72
2024/02/19 10:46:43;;;;;;;1.57;1.00;;;21.30;85.30;;;;;;4988266;28;20455;-67
2024/02/19 10:49:19;;;;;;;2.13;1.30;;;21.40;85.30;;;;;;4996253;28;20463;-66
2024/02/19 10:51:48;;;;;;;1.90;1.00;;;21.40;85.00;;;;;;4987677;28;20469;-70
2024/02/19 10:54:23;;;;;;;7.00;1.30;;;21.40;85.00;;;;;;4999147;28;20458;-68
2024/02/19 10:57:13;;;;;;;1.80;1.10;;;21.50;84.90;;;;;;4999682;28;20457;-68
2024/02/19 10:59:44;;;;;;;2.53;1.17;;;21.50;84.80;;;;;;5004344;28;21169;-67
2024/02/19 11:02:25;;;;;;;1.77;0.97;;;21.60;84.80;;;;;;4999798;28;20490;-69
2024/02/19 11:05:00;;;;;;;1.67;1.17;;;21.50;84.60;;;;;;4988087;28;20470;-71
2024/02/19 11:07:32;;;;;;;3.23;1.30;;;21.60;84.60;;;;;;4979890;28;20463;-72
2024/02/19 11:10:11;;;;;;;2.37;1.60;;;21.60;84.50;;;;;;4998960;28;20458;-71
2024/02/19 11:12:44;;;;;;;2.70;1.30;;;21.60;84.40;;;;;;4997015;28;20470;-69
2024/02/19 11:15:18;;;;;;;2.93;1.00;;;21.60;84.30;;;;;;4991079;28;20529;-71
2024/02/19 11:17:55;;;;;;;1.97;1.40;;;21.70;84.30;;;;;;4997295;28;20462;-71
2024/02/19 11:20:35;;;;;;;1.40;1.10;;;21.70;84.30;;;;;;4993870;28;20843;-67
2024/02/19 11:23:04;;;;;;;1.97;1.03;;;21.70;84.20;;;;;;4994800;28;20451;-72
2024/02/19 11:25:35;;;;;;;2.63;1.30;;;21.70;84.10;;;;;;4986811;28;20482;-69
2024/02/19 11:28:04;;;;;;;4.23;1.63;;;21.70;84.00;;;;;;4995068;28;20467;-70
2024/02/19 11:30:36;;;;;;;2.37;0.97;;;21.80;84.20;;;;;;4995351;28;20473;-73
2024/02/19 11:33:04;;;;;;;2.90;1.60;;;21.80;84.00;;;;;;4995919;28;20459;-71
2024/02/19 11:35:35;;;;;;;1.93;1.10;;;21.80;84.00;;;;;;4992443;28;21231;-70
2024/02/19 11:38:10;;;;;;;2.53;1.47;;;21.80;83.90;;;;;;4997075;28;20467;-72
2024/02/19 11:40:45;;;;;;;4.20;1.30;;;21.90;83.90;;;;;;4934448;28;28004;-72
2024/02/19 11:43:21;;;;;;;1.80;1.30;;;21.80;83.90;;;;;;4987989;28;20498;-69
2024/02/19 11:45:50;;;;;;;1.90;1.13;;;21.80;83.80;;;;;;4986882;28;21110;-67
2024/02/19 11:48:24;;;;;;;2.47;1.27;;;21.80;83.70;;;;;;4996767;28;20553;-75
2024/02/19 11:53:49;;;;;;;;;;;;;;;;;;;;;
2024/02/19 11:56:18;;;;;;;1.50;1.33;;;21.90;83.80;;;;;;4992320;28;20489;-71
2024/02/19 11:58:53;;;;;;;2.27;1.50;;;22.00;83.90;;;;;;4988697;28;20772;-69
2024/02/19 12:01:24;;;;;;;2.10;1.13;;;22.00;83.60;;;;;;4992042;28;20796;-68
2024/02/19 12:03:52;;;;;;;5.10;1.17;;;22.00;83.60;;;;;;4996645;28;21239;-65
2024/02/19 12:06:23;;;;;;;1.40;1.30;;;22.00;83.60;;;;;;4993179;28;21084;-67
2024/02/19 12:09:05;;;;;;;2.80;1.70;;;22.00;83.50;;;;;;4995685;28;20466;-68
2024/02/19 12:11:33;;;;;;;1.90;1.40;;;22.00;83.60;;;;;;4998588;28;20450;-69
2024/02/19 12:14:17;;;;;;;1.90;1.33;;;22.10;83.60;;;;;;4999267;28;20462;-68
2024/02/19 12:16:50;;;;;;;1.37;1.17;;;22.10;83.40;;;;;;5002525;28;21282;-68
2024/02/19 12:19:16;;;;;;;1.70;0.87;;;22.00;83.40;;;;;;4994587;28;21190;-67
2024/02/19 12:21:44;;;;;;;1.73;1.10;;;22.10;83.50;;;;;;4995945;28;20462;-66
2024/02/19 12:24:16;;;;;;;4.57;1.57;;;22.10;83.40;;;;;;4991239;28;20458;-72
2024/02/19 12:26:46;;;;;;;5.70;1.63;;;22.10;83.20;;;;;;4995030;28;20558;-69
2024/02/19 12:29:15;;;;;;;4.93;1.70;;;22.10;83.20;;;;;;4992368;28;20459;-67
2024/02/19 12:31:42;;;;;;;2.97;1.70;;;22.10;83.20;;;;;;4993545;28;20970;-66
2024/02/19 12:34:12;;;;;;;2.10;1.53;;;22.10;83.20;;;;;;4995764;28;20480;-72
2024/02/19 12:36:43;;;;;;;4.03;1.80;;;22.10;82.90;;;;;;4999606;28;20884;-66
2024/02/19 12:39:21;;;;;;;4.27;1.30;;;22.10;82.90;;;;;;4998074;28;20459;-66
2024/02/19 12:41:48;;;;;;;1.97;1.50;;;22.20;83.00;;;;;;4999861;28;20481;-68
2024/02/19 12:44:18;;;;;;;4.50;2.23;;;22.20;82.90;;;;;;4993988;28;20455;-65
2024/02/19 12:46:50;;;;;;;1.70;1.47;;;22.20;82.90;;;;;;4996362;28;20463;-68
2024/02/19 12:49:19;;;;;;;2.30;1.33;;;22.20;82.70;;;;;;4999102;28;20461;-68
2024/02/19 12:51:52;;;;;;;2.20;1.20;;;22.20;82.70;;;;;;5003367;28;20459;-69
2024/02/19 12:54:22;;;;;;;2.60;1.40;;;22.20;82.60;;;;;;5004339;28;20485;-65
2024/02/19 12:56:55;;;;;;;4.30;1.13;;;22.20;82.60;;;;;;5002495;28;20479;-65
2024/02/19 12:59:31;;;;;;;5.43;1.17;;;22.20;82.50;;;;;;4996714;28;20763;-68
2024/02/19 13:01:57;;;;;;;2.93;1.40;;;22.20;82.40;;;;;;4999602;28;20463;-68
2024/02/19 13:04:28;;;;;;;2.20;1.10;;;22.20;82.50;;;;;;5003539;28;20464;-68
2024/02/19 13:07:01;;;;;;;3.10;1.20;;;22.30;82.50;;;;;;5000489;28;20466;-70
2024/02/19 13:09:34;;;;;;;2.20;1.50;;;22.20;82.30;;;;;;5000542;28;21095;-66
2024/02/19 13:12:08;;;;;;;1.50;1.20;;;22.30;82.40;;;;;;4998452;28;21074;-70
2024/02/19 13:14:43;;;;;;;5.70;1.57;;;22.30;82.30;;;;;;4993681;28;20459;-70
2024/02/19 13:17:20;;;;;;;3.20;1.30;;;22.30;82.10;;;;;;4991851;28;20526;-69
2024/02/19 13:19:49;;;;;;;3.00;1.30;;;22.30;82.00;;;;;;4994932;28;20455;-69
2024/02/19 13:22:17;;;;;;;1.73;1.20;;;22.20;81.80;;;;;;4998604;28;20471;-68
2024/02/19 13:24:44;;;;;;;2.60;1.53;;;22.30;81.80;;;;;;5002332;28;20782;-68